Time;durP1;ratioP1;P1;durP2;ratioP2;P2;SDS_P1;SDS_P2;PMS_P1;PMS_P2;Temp;Humidity;BMP_temperature;BMP_pressure;BME280_temperature;BME280_humidity;BME280_pressure;Samples;Min_cycle;Max_cycle;Signal;HPM_P1;HPM_P2
2021/11/25 00:02:09;;;;;;;17.82;11.85;;;;;;;1.65;69.43;101112.47;1724049;82;21773;-70
2021/11/25 00:04:36;;;;;;;16.48;10.98;;;;;;;1.63;69.47;101108.58;1722311;82;21014;-70
2021/11/25 00:07:03;;;;;;;17.73;10.95;;;;;;;1.63;69.49;101112.94;1722349;82;21071;-69
2021/11/25 00:09:31;;;;;;;17.90;11.78;;;;;;;1.62;69.46;101112.54;1721467;83;21040;-71
2021/11/25 00:11:59;;;;;;;18.30;11.30;;;;;;;1.56;69.33;101105.78;1708853;82;21100;-71
2021/11/25 00:14:26;;;;;;;17.05;11.15;;;;;;;1.51;69.29;101104.20;1714921;82;21817;-71
2021/11/25 00:16:53;;;;;;;17.50;10.80;;;;;;;1.44;69.22;101104.38;1746087;80;20984;-70
2021/11/25 00:19:22;;;;;;;15.15;10.48;;;;;;;1.38;69.27;101107.64;1759883;80;21016;-70
2021/11/25 00:21:48;;;;;;;17.92;11.57;;;;;;;1.31;69.36;101100.45;1736525;80;21034;-70
2021/11/25 00:24:15;;;;;;;15.58;11.03;;;;;;;1.27;69.40;101095.40;1742312;82;21439;-70
2021/11/25 00:26:42;;;;;;;16.57;11.68;;;;;;;1.22;69.51;101097.27;1703393;83;21852;-70
2021/11/25 00:29:09;;;;;;;18.42;11.30;;;;;;;1.20;69.52;101096.47;1713908;82;21002;-71
2021/11/25 00:31:37;;;;;;;16.42;11.10;;;;;;;1.13;69.55;101093.18;1741013;80;20970;-71
2021/11/25 00:34:04;;;;;;;15.25;11.30;;;;;;;1.05;69.63;101090.80;1729315;80;21000;-71
2021/11/25 00:36:30;;;;;;;17.77;11.80;;;;;;;1.00;69.75;101093.98;1757199;80;20997;-70
2021/11/25 00:38:57;;;;;;;18.80;12.05;;;;;;;0.95;69.79;101086.75;1736907;82;21785;-70
2021/11/25 00:41:24;;;;;;;19.77;13.05;;;;;;;0.91;69.87;101085.15;1734418;80;20941;-70
2021/11/25 00:43:51;;;;;;;17.07;11.22;;;;;;;0.87;69.94;101080.94;1746449;82;21039;-70
2021/11/25 00:46:18;;;;;;;19.27;12.50;;;;;;;0.82;69.97;101078.90;1751827;80;20944;-71
2021/11/25 00:48:45;;;;;;;21.62;13.25;;;;;;;0.76;70.13;101084.27;1746170;80;21000;-70
2021/11/25 00:51:12;;;;;;;20.10;12.85;;;;;;;0.70;70.22;101081.84;1730597;82;22189;-71
2021/11/25 00:53:39;;;;;;;20.02;12.90;;;;;;;0.68;70.29;101079.30;1746119;82;21150;-70
2021/11/25 00:56:05;;;;;;;21.23;12.70;;;;;;;0.68;70.26;101077.14;1745369;82;21480;-70
2021/11/25 00:58:32;;;;;;;20.30;12.65;;;;;;;0.67;70.24;101073.66;1748769;80;21047;-70
2021/11/25 01:00:59;;;;;;;19.27;13.03;;;;;;;0.67;70.25;101075.41;1752060;80;20986;-71
2021/11/25 01:03:26;;;;;;;21.62;13.10;;;;;;;0.65;70.23;101075.45;1755465;80;21827;-70
2021/11/25 01:05:53;;;;;;;22.90;13.53;;;;;;;0.63;70.26;101080.30;1745324;80;21009;-70
2021/11/25 01:08:20;;;;;;;22.00;13.08;;;;;;;0.61;70.32;101080.35;1732974;82;21036;-70
2021/11/25 01:10:48;;;;;;;21.00;13.68;;;;;;;0.61;70.32;101073.85;1747875;80;21004;-70
2021/11/25 01:13:15;;;;;;;20.90;13.45;;;;;;;0.60;70.32;101071.30;1736871;82;21008;-70
2021/11/25 01:15:42;;;;;;;20.75;13.18;;;;;;;0.57;70.33;101077.41;1743060;82;22148;-71
2021/11/25 01:18:13;;;;;;;21.10;13.50;;;;;;;0.55;70.34;101064.45;1738588;80;21056;-71
2021/11/25 01:20:43;;;;;;;21.50;13.18;;;;;;;0.54;70.36;101068.41;1745220;80;21087;-71
2021/11/25 01:23:18;;;;;;;22.40;13.68;;;;;;;0.51;70.33;101073.70;1745968;82;21057;-71
2021/11/25 01:25:45;;;;;;;22.32;13.85;;;;;;;0.47;70.28;101067.70;1732347;82;21067;-71
2021/11/25 01:28:12;;;;;;;21.95;13.35;;;;;;;0.44;70.28;101066.50;1745442;82;21820;-70
2021/11/25 01:30:45;;;;;;;21.48;12.60;;;;;;;0.43;70.30;101071.73;1742477;80;20941;-69
2021/11/25 01:33:12;;;;;;;16.60;10.73;;;;;;;0.41;70.31;101082.62;1738843;82;21029;-70
2021/11/25 01:35:39;;;;;;;22.85;15.10;;;;;;;0.37;70.32;101080.98;1732544;82;21388;-70
2021/11/25 01:38:10;;;;;;;23.38;16.50;;;;;;;0.33;70.36;101073.73;1736217;82;20960;-71
2021/11/25 01:40:36;;;;;;;28.12;16.82;;;;;;;0.30;70.40;101076.86;1744993;82;22893;-71
2021/11/25 01:43:03;;;;;;;50.12;32.13;;;;;;;0.24;70.34;101080.02;1729835;82;21518;-70
2021/11/25 01:45:30;;;;;;;33.85;24.15;;;;;;;0.21;70.39;101076.20;1745745;80;21441;-71
2021/11/25 01:47:57;;;;;;;43.25;31.50;;;;;;;0.19;70.44;101084.48;1745494;82;21093;-70
2021/11/25 01:50:25;;;;;;;40.03;29.82;;;;;;;0.17;70.48;101079.75;1745798;82;21015;-69
2021/11/25 01:52:52;;;;;;;30.10;22.45;;;;;;;0.15;70.52;101078.94;1745888;82;21841;-70
2021/11/25 01:55:22;;;;;;;43.55;29.67;;;;;;;0.14;70.63;101073.79;1727466;80;21053;-70
2021/11/25 01:57:49;;;;;;;31.68;22.95;;;;;;;0.12;70.68;101069.09;1745936;82;20980;-70
2021/11/25 02:00:30;;;;;;;23.83;16.55;;;;;;;0.11;70.73;101072.58;1762793;80;21102;-71
2021/11/25 02:02:57;;;;;;;20.02;13.85;;;;;;;0.09;70.75;101080.83;1741664;82;21070;-71
2021/11/25 02:05:25;;;;;;;16.60;12.47;;;;;;;0.05;70.73;101082.66;1746007;81;22563;-71
2021/11/25 02:07:51;;;;;;;18.45;11.12;;;;;;;0.02;70.77;101082.75;1737449;81;21028;-70
2021/11/25 02:10:18;;;;;;;16.87;11.60;;;;;;;0.01;70.76;101082.80;1752027;80;20992;-71
2021/11/25 02:12:46;;;;;;;18.23;11.63;;;;;;;-0.02;70.82;101089.74;1741421;80;21600;-71
2021/11/25 02:15:13;;;;;;;15.50;11.25;;;;;;;-0.05;70.84;101078.59;1736614;80;21494;-71
2021/11/25 02:17:41;;;;;;;16.02;11.78;;;;;;;-0.05;70.82;101088.53;1756915;80;22014;-71
2021/11/25 02:20:09;;;;;;;16.02;11.43;;;;;;;-0.07;70.89;101084.27;1744049;80;20937;-71
2021/11/25 02:22:37;;;;;;;16.48;10.55;;;;;;;-0.09;70.91;101088.66;1752632;80;20996;-71
2021/11/25 02:25:06;;;;;;;16.23;11.65;;;;;;;-0.12;70.92;101092.16;1752084;80;21413;-70
2021/11/25 02:27:33;;;;;;;19.05;13.18;;;;;;;-0.16;70.95;101090.53;1739555;80;20960;-71
2021/11/25 02:30:00;;;;;;;19.30;12.82;;;;;;;-0.18;71.05;101092.77;1746744;80;21878;-71
2021/11/25 02:32:37;;;;;;;21.50;13.65;;;;;;;-0.21;71.14;101097.56;1753366;80;21051;-70
2021/11/25 02:35:08;;;;;;;15.23;12.10;;;;;;;-0.21;71.18;101096.27;1722002;82;21024;-70
2021/11/25 02:37:34;;;;;;;21.10;12.47;;;;;;;-0.20;71.17;101099.72;1732418;82;21465;-70
2021/11/25 02:40:19;;;;;;;17.65;12.07;;;;;;;-0.22;71.17;101095.01;1734727;80;21095;-70
2021/11/25 02:42:48;;;;;;;18.57;12.80;;;;;;;-0.22;71.22;101097.61;1741213;80;21792;-71
2021/11/25 02:45:15;;;;;;;16.82;12.40;;;;;;;-0.24;71.22;101096.34;1712218;80;21000;-71
2021/11/25 02:47:43;;;;;;;18.00;12.45;;;;;;;-0.26;71.29;101090.34;1749094;80;21016;-70
2021/11/25 02:50:09;;;;;;;19.12;12.28;;;;;;;-0.26;71.44;101089.05;1736649;80;21575;-70
2021/11/25 02:52:40;;;;;;;19.40;12.30;;;;;;;-0.25;71.57;101083.41;1717878;80;20957;-70
2021/11/25 02:55:09;;;;;;;17.30;12.05;;;;;;;-0.23;71.67;101077.73;1734662;80;21815;-70
2021/11/25 02:57:36;;;;;;;17.75;12.18;;;;;;;-0.22;71.74;101082.03;1746734;80;21464;-70
2021/11/25 03:00:07;;;;;;;18.52;13.25;;;;;;;-0.21;71.82;101078.09;1740891;80;21008;-71
2021/11/25 03:02:34;;;;;;;19.65;13.60;;;;;;;-0.19;71.91;101076.75;1745048;82;21483;-70
2021/11/25 03:05:00;;;;;;;18.98;13.15;;;;;;;-0.17;71.93;101075.00;1750513;80;20876;-70
2021/11/25 03:07:27;;;;;;;20.00;13.30;;;;;;;-0.17;71.96;101072.41;1738715;82;22477;-70
2021/11/25 03:09:54;;;;;;;17.95;12.95;;;;;;;-0.14;71.99;101075.77;1736439;80;21048;-70
2021/11/25 03:12:20;;;;;;;21.52;14.23;;;;;;;-0.15;71.95;101077.11;1758478;80;20937;-70
2021/11/25 03:14:47;;;;;;;17.30;12.73;;;;;;;-0.17;71.97;101069.81;1769497;80;21142;-70
2021/11/25 03:17:15;;;;;;;19.00;13.72;;;;;;;-0.18;72.11;101070.70;1737784;80;21020;-70
2021/11/25 03:19:42;;;;;;;17.45;12.88;;;;;;;-0.17;72.21;101068.06;1745782;81;21777;-70
2021/11/25 03:22:09;;;;;;;19.92;13.58;;;;;;;-0.17;72.13;101060.27;1751242;80;20946;-70
2021/11/25 03:24:36;;;;;;;19.42;12.98;;;;;;;-0.18;72.07;101072.84;1754875;80;20965;-70
2021/11/25 03:27:04;;;;;;;18.60;13.32;;;;;;;-0.20;72.15;101070.71;1742295;80;21046;-70
2021/11/25 03:29:30;;;;;;;20.17;14.83;;;;;;;-0.18;72.19;101077.19;1756941;80;21383;-70
2021/11/25 03:31:57;;;;;;;20.55;14.40;;;;;;;-0.19;72.18;101064.66;1769740;80;22139;-70
2021/11/25 03:34:24;;;;;;;20.65;14.60;;;;;;;-0.18;72.23;101062.47;1754121;80;21022;-71
2021/11/25 03:36:50;;;;;;;20.30;13.68;;;;;;;-0.17;72.34;101057.67;1754025;80;20949;-70
2021/11/25 03:39:18;;;;;;;20.88;14.87;;;;;;;-0.16;72.34;101054.19;1733179;80;20974;-70
2021/11/25 03:41:45;;;;;;;21.45;14.98;;;;;;;-0.13;72.29;101054.10;1725897;82;21577;-71
2021/11/25 03:44:12;;;;;;;19.62;14.73;;;;;;;-0.11;72.34;101052.31;1749141;80;22187;-70
2021/11/25 03:46:38;;;;;;;20.32;14.78;;;;;;;-0.10;72.26;101054.02;1710924;83;21118;-70
2021/11/25 03:49:05;;;;;;;19.10;13.35;;;;;;;-0.06;72.25;101058.70;1681034;85;21005;-71
2021/11/25 03:51:32;;;;;;;19.30;12.85;;;;;;;-0.04;72.21;101056.47;1684605;83;21094;-70
2021/11/25 03:53:59;;;;;;;19.15;13.28;;;;;;;-0.02;72.15;101066.37;1693338;83;21064;-71
2021/11/25 03:56:25;;;;;;;16.07;11.25;;;;;;;-0.01;72.12;101055.09;1762257;80;22205;-71
2021/11/25 03:58:52;;;;;;;20.32;12.93;;;;;;;0.02;72.10;101057.23;1753879;80;21036;-71
2021/11/25 04:01:19;;;;;;;18.80;12.50;;;;;;;-0.01;72.03;101049.89;1741567;81;21460;-70
2021/11/25 04:03:46;;;;;;;17.50;12.30;;;;;;;0.02;72.00;101049.44;1753617;80;21055;-71
2021/11/25 04:06:13;;;;;;;16.65;12.03;;;;;;;0.04;72.07;101044.60;1741128;80;21091;-70
2021/11/25 04:08:40;;;;;;;16.37;12.28;;;;;;;0.07;72.09;101044.96;1749806;80;21772;-70
2021/11/25 04:11:06;;;;;;;17.07;12.13;;;;;;;0.06;72.00;101044.11;1746551;81;20981;-69
2021/11/25 04:13:36;;;;;;;17.85;12.50;;;;;;;0.07;71.91;101048.86;1754055;80;21048;-70
2021/11/25 04:16:04;;;;;;;16.60;13.28;;;;;;;0.07;71.94;101046.26;1735123;80;21423;-70
2021/11/25 04:18:32;;;;;;;16.40;12.50;;;;;;;0.07;71.91;101046.26;1727878;80;21021;-70
2021/11/25 04:20:59;;;;;;;17.70;13.05;;;;;;;0.07;71.93;101039.77;1734360;80;21920;-71
2021/11/25 04:23:25;;;;;;;19.15;12.03;;;;;;;0.08;71.95;101049.26;1741281;82;21015;-71
2021/11/25 04:25:53;;;;;;;16.48;12.05;;;;;;;0.07;71.90;101038.02;1747093;80;21195;-70
2021/11/25 04:28:21;;;;;;;15.55;11.60;;;;;;;0.07;71.83;101042.36;1725333;80;20973;-70
2021/11/25 04:35:28;;;;;;;15.68;11.43;;;;;;;0.08;71.80;101042.77;1753986;80;21404;-71
2021/11/25 04:36:05;;;;;;;17.10;12.60;;;;;;;0.07;71.71;101043.66;1736836;81;21044;-70
2021/11/25 04:38:32;;;;;;;18.52;12.82;;;;;;;0.07;71.70;101039.31;1749804;81;21041;-71
2021/11/25 04:41:01;;;;;;;16.70;11.97;;;;;;;0.09;71.69;101043.17;1730487;81;20965;-70
2021/11/25 04:43:28;;;;;;;19.23;13.98;;;;;;;0.09;71.68;101041.42;1736162;82;21029;-71
2021/11/25 04:45:56;;;;;;;18.77;13.98;;;;;;;0.10;71.67;101039.70;1736711;81;22164;-71
2021/11/25 04:48:24;;;;;;;21.12;13.62;;;;;;;0.10;71.62;101042.31;1725115;81;20993;-71
2021/11/25 04:50:51;;;;;;;20.55;14.30;;;;;;;0.11;71.61;101044.02;1733700;81;20965;-71
2021/11/25 04:53:17;;;;;;;18.45;12.18;;;;;;;0.13;71.66;101039.63;1737624;82;21044;-71
2021/11/25 04:55:44;;;;;;;17.77;12.40;;;;;;;0.15;71.64;101045.62;1741713;81;21004;-70
2021/11/25 04:58:11;;;;;;;19.00;13.50;;;;;;;0.16;71.58;101048.17;1719480;80;21746;-70
2021/11/25 05:00:39;;;;;;;17.12;12.25;;;;;;;0.18;71.54;101042.94;1739501;80;20954;-70
2021/11/25 05:03:05;;;;;;;15.13;11.22;;;;;;;0.18;71.54;101044.23;1740287;80;21498;-71
2021/11/25 05:05:32;;;;;;;17.07;12.60;;;;;;;0.19;71.54;101044.22;1744322;80;21063;-70
2021/11/25 05:08:01;;;;;;;18.40;11.88;;;;;;;0.20;71.45;101046.38;1739254;80;21063;-73
2021/11/25 05:10:27;;;;;;;18.48;12.47;;;;;;;0.19;71.39;101048.12;1713901;82;21720;-72
2021/11/25 05:12:54;;;;;;;17.37;13.32;;;;;;;0.19;71.35;101046.82;1740500;80;20988;-72
2021/11/25 05:15:21;;;;;;;15.88;11.80;;;;;;;0.18;71.32;101046.83;1745999;82;21419;-74
2021/11/25 05:17:50;;;;;;;17.82;12.88;;;;;;;0.19;71.31;101055.03;1746512;81;20961;-72
2021/11/25 05:20:18;;;;;;;20.80;13.53;;;;;;;0.19;71.28;101056.33;1758157;80;21016;-74
2021/11/25 05:22:44;;;;;;;20.88;14.23;;;;;;;0.21;71.24;101045.48;1750835;80;21781;-72
2021/11/25 05:25:13;;;;;;;18.87;13.48;;;;;;;0.22;71.26;101049.77;1745511;82;21586;-71
2021/11/25 05:27:39;;;;;;;18.40;13.32;;;;;;;0.25;71.22;101044.48;1746713;82;20996;-73
2021/11/25 05:30:09;;;;;;;18.10;13.15;;;;;;;0.27;71.17;101049.19;1746134;82;21012;-74
2021/11/25 05:32:38;;;;;;;19.35;14.07;;;;;;;0.27;71.09;101047.45;1736848;80;21393;-72
2021/11/25 05:35:06;;;;;;;19.02;13.43;;;;;;;0.27;71.06;101050.49;1743096;80;21831;-73
2021/11/25 05:37:34;;;;;;;21.15;14.25;;;;;;;0.26;71.06;101051.39;1750905;80;21045;-71
2021/11/25 05:40:03;;;;;;;20.37;13.75;;;;;;;0.28;71.03;101053.05;1717473;82;20965;-72
2021/11/25 05:42:32;;;;;;;20.10;14.13;;;;;;;0.30;70.97;101048.28;1740307;81;20968;-72
2021/11/25 05:44:59;;;;;;;20.60;13.30;;;;;;;0.31;70.99;101049.53;1738842;81;20953;-69
2021/11/25 05:47:26;;;;;;;19.07;14.10;;;;;;;0.32;70.97;101057.73;1736758;81;21835;-71
2021/11/25 05:49:53;;;;;;;20.37;15.58;;;;;;;0.33;70.95;101061.19;1731022;81;20989;-71
2021/11/25 05:52:20;;;;;;;18.15;13.43;;;;;;;0.33;70.95;101062.03;1741045;81;20976;-71
2021/11/25 05:54:47;;;;;;;22.70;15.35;;;;;;;0.36;70.94;101064.98;1751618;81;20976;-72
2021/11/25 05:57:14;;;;;;;21.60;15.00;;;;;;;0.37;70.92;101064.09;1721906;81;21016;-70
2021/11/25 05:59:41;;;;;;;24.63;14.98;;;;;;;0.36;70.92;101063.24;1734771;82;21790;-70
2021/11/25 06:02:08;;;;;;;24.23;16.10;;;;;;;0.36;70.94;101058.50;1737920;82;21476;-71
2021/11/25 06:04:35;;;;;;;23.38;15.43;;;;;;;0.34;70.97;101059.84;1737718;82;21448;-71
2021/11/25 06:07:02;;;;;;;21.48;15.53;;;;;;;0.33;71.00;101063.33;1737634;82;21079;-71
2021/11/25 06:09:30;;;;;;;20.75;15.48;;;;;;;0.34;71.04;101065.03;1719606;82;21048;-71
2021/11/25 06:11:56;;;;;;;22.30;15.93;;;;;;;0.37;71.04;101062.34;1738509;82;21794;-70
2021/11/25 06:14:23;;;;;;;21.75;15.23;;;;;;;0.37;71.08;101064.95;1734361;82;21441;-69
2021/11/25 06:16:49;;;;;;;24.98;16.67;;;;;;;0.39;71.10;101063.19;1739669;82;20973;-71
2021/11/25 06:19:18;;;;;;;28.92;19.30;;;;;;;0.42;71.08;101066.98;1740448;82;21055;-70
2021/11/25 06:21:45;;;;;;;26.70;18.00;;;;;;;0.45;71.10;101061.70;1740098;82;20928;-71
2021/11/25 06:24:12;;;;;;;23.75;15.70;;;;;;;0.51;71.12;101061.55;1740462;81;21813;-73
2021/11/25 06:26:42;;;;;;;24.55;17.57;;;;;;;0.54;71.13;101061.45;1740156;82;20957;-71
2021/11/25 06:29:08;;;;;;;23.75;16.52;;;;;;;0.57;71.13;101056.16;1741237;82;21036;-70
2021/11/25 06:31:35;;;;;;;23.85;16.45;;;;;;;0.61;71.16;101054.80;1740468;82;21086;-70
2021/11/25 06:34:02;;;;;;;23.85;15.53;;;;;;;0.65;71.19;101055.11;1740552;82;21016;-69
2021/11/25 06:36:29;;;;;;;22.07;15.15;;;;;;;0.69;71.23;101065.84;1740082;81;22679;-70
2021/11/25 06:38:56;;;;;;;19.87;14.60;;;;;;;0.73;71.31;101059.66;1731887;81;21013;-70
2021/11/25 06:41:23;;;;;;;21.15;14.53;;;;;;;0.76;71.37;101057.81;1739623;82;21075;-71
2021/11/25 06:43:50;;;;;;;20.02;15.00;;;;;;;0.81;71.40;101056.39;1740313;81;21020;-71
2021/11/25 06:46:18;;;;;;;21.30;15.05;;;;;;;0.85;71.49;101051.50;1740565;82;21009;-71
2021/11/25 06:48:45;;;;;;;21.07;15.85;;;;;;;0.91;71.53;101056.53;1740574;82;22163;-72
2021/11/25 06:51:12;;;;;;;21.20;15.30;;;;;;;0.97;71.53;101058.13;1740088;82;21035;-70
2021/11/25 06:53:38;;;;;;;20.35;15.08;;;;;;;1.02;71.54;101057.52;1738611;80;21479;-70
2021/11/25 06:56:05;;;;;;;19.87;14.45;;;;;;;1.07;71.57;101061.70;1740029;82;21269;-71
2021/11/25 06:58:32;;;;;;;19.90;14.60;;;;;;;1.12;71.56;101056.36;1740532;82;21032;-71
2021/11/25 07:01:03;;;;;;;20.62;14.83;;;;;;;1.15;71.56;101063.61;1740645;82;22248;-70
2021/11/25 07:03:28;;;;;;;20.32;14.68;;;;;;;1.18;71.53;101066.59;1727055;81;20962;-71
2021/11/25 07:05:55;;;;;;;20.40;13.53;;;;;;;1.22;71.56;101063.44;1733713;82;21047;-71
2021/11/25 07:08:23;;;;;;;20.65;13.83;;;;;;;1.25;71.58;101073.30;1733467;82;21477;-70
2021/11/25 07:10:49;;;;;;;18.05;13.40;;;;;;;1.27;71.59;101061.56;1732714;80;20981;-72
2021/11/25 07:13:16;;;;;;;21.27;14.43;;;;;;;1.30;71.62;101064.92;1738482;82;22226;-72
2021/11/25 07:15:43;;;;;;;18.35;13.85;;;;;;;1.34;71.62;101066.52;1738592;82;21036;-72
2021/11/25 07:18:11;;;;;;;24.92;15.58;;;;;;;1.38;71.60;101068.59;1739808;82;21363;-71
2021/11/25 07:20:39;;;;;;;23.57;16.12;;;;;;;1.41;71.58;101067.19;1740540;82;20940;-71
2021/11/25 07:23:06;;;;;;;27.95;19.70;;;;;;;1.44;71.62;101067.09;1740373;82;21000;-71
2021/11/25 07:25:33;;;;;;;26.68;19.42;;;;;;;1.47;71.53;101069.62;1740702;82;21793;-69
2021/11/25 07:28:00;;;;;;;23.60;17.80;;;;;;;1.49;71.52;101069.11;1737317;81;21456;-73
2021/11/25 07:30:29;;;;;;;23.12;16.12;;;;;;;1.51;71.56;101056.90;1740329;81;21047;-71
2021/11/25 07:32:56;;;;;;;22.80;15.35;;;;;;;1.55;71.54;101065.03;1740534;81;21062;-71
2021/11/25 07:35:23;;;;;;;21.80;15.38;;;;;;;1.60;71.57;101061.81;1720855;82;21427;-74
2021/11/25 07:37:52;;;;;;;19.32;14.33;;;;;;;1.66;71.62;101060.33;1740825;82;22171;-71
2021/11/25 07:40:23;;;;;;;20.20;15.40;;;;;;;1.72;71.59;101066.63;1734674;80;21352;-73
2021/11/25 07:42:52;;;;;;;23.77;15.72;;;;;;;1.77;71.54;101062.59;1729634;82;21012;-70
2021/11/25 07:45:20;;;;;;;22.75;17.05;;;;;;;1.81;71.48;101064.19;1741385;81;21060;-70
2021/11/25 07:47:47;;;;;;;23.98;16.42;;;;;;;1.86;71.48;101062.30;1734889;82;20870;-71
2021/11/25 07:50:17;;;;;;;25.43;16.80;;;;;;;1.90;71.41;101064.34;1738350;81;21792;-68
2021/11/25 07:52:44;;;;;;;23.70;14.90;;;;;;;1.93;71.37;101066.42;1757583;81;21530;-69
2021/11/25 07:55:13;;;;;;;19.65;14.68;;;;;;;1.96;71.24;101060.25;1748712;81;20953;-71
2021/11/25 07:57:42;;;;;;;21.23;15.38;;;;;;;1.99;71.16;101064.05;1740627;82;20976;-71
2021/11/25 08:00:10;;;;;;;20.82;15.18;;;;;;;1.99;71.05;101060.13;1740667;80;20961;-69
2021/11/25 08:02:40;;;;;;;20.70;15.43;;;;;;;2.03;71.02;101069.99;1748842;80;21819;-70
2021/11/25 08:05:08;;;;;;;21.17;14.75;;;;;;;2.03;70.92;101066.97;1746506;81;20958;-69
2021/11/25 08:07:35;;;;;;;23.15;15.13;;;;;;;2.06;70.97;101060.80;1753452;81;21028;-69
2021/11/25 08:10:05;;;;;;;25.88;14.93;;;;;;;2.11;70.94;101069.30;1721109;81;21486;-69
2021/11/25 08:12:32;;;;;;;24.27;17.05;;;;;;;2.16;70.93;101066.95;1730767;81;21048;-69
2021/11/25 08:14:58;;;;;;;19.37;14.65;;;;;;;2.19;70.76;101066.83;1737596;80;22196;-68
2021/11/25 08:17:25;;;;;;;21.70;15.03;;;;;;;2.25;70.71;101067.09;1756965;80;21044;-69
2021/11/25 08:19:52;;;;;;;20.72;14.78;;;;;;;2.28;70.70;101063.91;1733341;80;21051;-69
2021/11/25 08:22:19;;;;;;;19.73;14.93;;;;;;;2.33;70.59;101060.31;1732205;82;20952;-69
2021/11/25 08:24:46;;;;;;;19.90;14.55;;;;;;;2.36;70.50;101064.11;1752341;80;21122;-70
2021/11/25 08:27:14;;;;;;;17.77;12.73;;;;;;;2.38;70.33;101063.15;1736164;80;40670;-70
2021/11/25 08:29:42;;;;;;;20.80;14.60;;;;;;;2.41;70.21;101060.87;1748120;80;20988;-70
2021/11/25 08:32:09;;;;;;;20.10;15.53;;;;;;;2.42;70.15;101063.45;1751347;80;21027;-68
2021/11/25 08:34:37;;;;;;;21.62;14.63;;;;;;;2.45;70.16;101063.34;1745387;80;20969;-69
2021/11/25 08:37:04;;;;;;;18.07;12.95;;;;;;;2.49;70.15;101064.92;1749203;80;21025;-70
2021/11/25 08:39:31;;;;;;;18.37;13.70;;;;;;;2.49;69.79;101062.31;1730959;80;22214;-73
2021/11/25 08:41:57;;;;;;;17.73;12.80;;;;;;;2.49;69.68;101061.47;1736290;80;21550;-69
2021/11/25 08:44:24;;;;;;;17.20;13.15;;;;;;;2.50;69.68;101056.19;1736937;80;21048;-70
2021/11/25 08:46:51;;;;;;;16.45;13.08;;;;;;;2.54;69.74;101056.50;1740073;82;21024;-69
2021/11/25 08:49:18;;;;;;;15.50;12.03;;;;;;;2.60;69.81;101048.89;1727247;80;20962;-70
2021/11/25 08:51:46;;;;;;;18.65;13.90;;;;;;;2.68;69.82;101050.78;1744010;82;22668;-70
2021/11/25 08:54:13;;;;;;;18.20;13.15;;;;;;;2.74;69.80;101049.27;1744267;82;21023;-70
2021/11/25 08:56:39;;;;;;;17.12;12.35;;;;;;;2.79;69.51;101052.55;1739736;81;20941;-69
2021/11/25 08:59:06;;;;;;;18.12;13.62;;;;;;;2.80;69.47;101049.52;1746480;82;21495;-68
2021/11/25 09:01:33;;;;;;;22.17;15.48;;;;;;;2.81;69.27;101045.54;1753191;80;21494;-69
2021/11/25 09:04:00;;;;;;;17.37;13.60;;;;;;;2.84;69.10;101043.27;1751730;80;21836;-70
2021/11/25 09:06:26;;;;;;;17.35;12.93;;;;;;;2.86;68.95;101043.59;1766946;80;21028;-69
2021/11/25 09:08:53;;;;;;;20.92;13.98;;;;;;;2.89;68.90;101041.31;1757775;80;21024;-70
2021/11/25 09:11:20;;;;;;;18.85;13.18;;;;;;;2.91;68.76;101041.29;1728154;80;21596;-70
2021/11/25 09:13:46;;;;;;;19.48;13.78;;;;;;;2.95;68.76;101039.80;1733024;82;21035;-68
2021/11/25 09:16:13;;;;;;;17.77;13.38;;;;;;;2.99;68.69;101034.00;1741533;80;21682;-70
2021/11/25 09:18:40;;;;;;;15.98;12.93;;;;;;;3.01;68.33;101029.14;1748938;82;20956;-70
2021/11/25 09:21:07;;;;;;;18.12;13.15;;;;;;;3.04;68.44;101024.25;1745097;80;21384;-73
2021/11/25 09:23:33;;;;;;;19.37;14.98;;;;;;;3.09;68.60;101016.66;1752608;80;21004;-70
2021/11/25 09:26:02;;;;;;;20.35;13.78;;;;;;;3.16;68.52;101015.95;1758348;80;21091;-70
2021/11/25 09:28:29;;;;;;;18.05;13.58;;;;;;;3.23;68.52;101015.27;1760020;80;22252;-70
2021/11/25 09:30:56;;;;;;;26.02;17.80;;;;;;;3.26;68.15;101016.44;1736630;82;20993;-70
2021/11/25 09:33:23;;;;;;;21.42;15.23;;;;;;;3.29;68.23;101009.36;1746736;81;21482;-72
2021/11/25 09:35:50;;;;;;;15.98;13.25;;;;;;;3.35;68.23;101005.64;1746505;80;21033;-72
2021/11/25 09:38:17;;;;;;;16.17;13.30;;;;;;;3.43;68.27;101010.95;1701306;83;21041;-71
2021/11/25 09:40:45;;;;;;;19.98;14.93;;;;;;;3.51;67.95;101000.21;1754099;80;21857;-70
2021/11/25 09:43:20;;;;;;;21.60;15.95;;;;;;;3.55;67.47;100997.86;1727123;80;21091;-71
2021/11/25 09:45:45;;;;;;;22.05;16.17;;;;;;;3.60;67.25;100998.99;1748238;80;20998;-70
2021/11/25 09:48:12;;;;;;;22.58;15.90;;;;;;;3.63;66.93;100991.88;1749013;80;20972;-70
2021/11/25 09:50:46;;;;;;;19.15;14.23;;;;;;;3.69;66.59;100989.48;1721649;80;21009;-71
2021/11/25 09:53:14;;;;;;;17.65;13.98;;;;;;;3.74;66.42;100978.36;1712435;83;21892;-70
2021/11/25 09:55:43;;;;;;;17.32;12.78;;;;;;;3.79;66.23;100976.88;1734437;80;21000;-70
2021/11/25 09:58:14;;;;;;;20.25;14.87;;;;;;;3.86;66.08;100974.38;1780049;80;20957;-70
2021/11/25 10:00:44;;;;;;;20.23;15.30;;;;;;;3.91;65.61;100968.06;1767845;80;21066;-71
2021/11/25 10:03:16;;;;;;;21.12;14.83;;;;;;;3.98;65.47;100964.73;1748994;82;20940;-71
2021/11/25 10:05:40;;;;;;;19.07;14.75;;;;;;;4.09;65.48;100966.89;1750092;80;21847;-70
2021/11/25 10:08:35;;;;;;;17.12;12.78;;;;;;;4.16;65.48;100966.56;1767991;80;20948;-71
2021/11/25 10:11:10;;;;;;;20.37;15.00;;;;;;;4.20;64.58;100969.88;1705803;82;21020;-72
2021/11/25 10:13:55;;;;;;;17.17;13.05;;;;;;;4.19;64.08;100965.11;1733489;81;21503;-73
2021/11/25 10:16:29;;;;;;;17.75;13.90;;;;;;;4.18;64.00;100960.80;1744086;81;20981;-71
2021/11/25 10:18:58;;;;;;;16.85;13.10;;;;;;;4.16;63.79;100956.56;1743733;82;21830;-70
2021/11/25 10:21:27;;;;;;;15.15;12.73;;;;;;;4.17;63.88;100961.72;1727438;81;21021;-70
2021/11/25 10:23:55;;;;;;;17.77;12.43;;;;;;;4.16;63.44;100961.34;1724782;81;21008;-70
2021/11/25 10:26:25;;;;;;;17.05;13.38;;;;;;;4.16;63.30;100956.56;1700445;84;21049;-71
2021/11/25 10:28:59;;;;;;;20.35;15.30;;;;;;;4.17;63.15;100947.34;1727091;82;21047;-70
2021/11/25 10:31:32;;;;;;;14.95;12.18;;;;;;;4.17;62.45;100942.58;1713733;82;22690;-70
2021/11/25 10:34:12;;;;;;;14.40;12.23;;;;;;;4.20;62.56;100941.13;1700613;83;20946;-70
2021/11/25 10:42:20;;;;;;;16.05;11.10;;;;;;;4.28;62.00;100933.34;1700682;82;20954;-70
2021/11/25 10:44:50;;;;;;;14.68;11.75;;;;;;;4.31;61.84;100927.11;1717079;82;21812;-74
2021/11/25 10:47:21;;;;;;;16.40;12.15;;;;;;;4.34;61.96;100928.73;1730427;82;20957;-68
2021/11/25 10:49:52;;;;;;;14.93;12.40;;;;;;;4.35;61.22;100923.92;1733682;81;21658;-70
2021/11/25 10:52:39;;;;;;;16.95;12.63;;;;;;;4.35;60.91;100922.16;1705259;82;21038;-72
2021/11/25 10:55:17;;;;;;;16.52;12.03;;;;;;;4.35;60.49;100914.77;1707410;82;21142;-71
2021/11/25 10:57:58;;;;;;;16.02;12.15;;;;;;;4.35;60.27;100909.08;1727881;82;21765;-70
2021/11/25 11:00:35;;;;;;;17.85;13.30;;;;;;;4.38;59.93;100915.93;1730225;82;21445;-69
2021/11/25 11:03:22;;;;;;;19.67;12.70;;;;;;;4.40;60.24;100903.16;1714082;82;21441;-69
2021/11/25 11:05:57;;;;;;;14.73;11.35;;;;;;;4.44;60.33;100902.55;1724341;82;21333;-69
2021/11/25 11:08:27;;;;;;;13.83;10.82;;;;;;;4.48;59.61;100898.44;1701167;82;21080;-70
2021/11/25 11:11:01;;;;;;;11.70;10.50;;;;;;;4.50;59.14;100895.74;1707478;82;21671;-70
2021/11/25 11:18:55;;;;;;;29.30;19.32;;;;;;;4.53;58.05;100885.13;1744029;81;21060;-70
2021/11/25 11:21:40;;;;;;;32.08;21.75;;;;;;;4.53;58.03;100878.13;1707817;83;20953;-70
2021/11/25 11:24:14;;;;;;;15.30;12.68;;;;;;;4.53;57.91;100872.89;1742288;82;21868;-69
2021/11/25 11:26:57;;;;;;;20.37;14.40;;;;;;;4.51;57.25;100879.98;1738837;82;21385;-69
2021/11/25 11:29:29;;;;;;;13.08;10.25;;;;;;;4.49;57.44;100872.66;1746409;82;21499;-69
2021/11/25 11:31:58;;;;;;;10.23;8.00;;;;;;;4.47;57.15;100874.51;1771668;80;20996;-70
2021/11/25 11:34:26;;;;;;;10.70;8.23;;;;;;;4.46;56.80;100875.44;1763273;80;21047;-71
2021/11/25 11:36:54;;;;;;;10.48;7.53;;;;;;;4.45;56.97;100876.81;1738294;81;22175;-71